sensor_id;sensor_type;location;lat;lon;timestamp;P1;P2;P0
23240;PMS7003;11789;53.482;9.862;2023-10-31T00:00:19;19.50;17.50;11.75
23240;PMS7003;11789;53.482;9.862;2023-10-31T00:02:45;16.25;15.00;12.00
23240;PMS7003;11789;53.482;9.862;2023-10-31T00:05:10;16.00;15.00;11.25
23240;PMS7003;11789;53.482;9.862;2023-10-31T00:07:36;16.75;15.00;10.75
23240;PMS7003;11789;53.482;9.862;2023-10-31T00:10:01;19.00;17.25;12.00
23240;PMS7003;11789;53.482;9.862;2023-10-31T00:12:27;15.00;15.00;11.50
23240;PMS7003;11789;53.482;9.862;2023-10-31T00:14:53;18.00;16.00;11.25
23240;PMS7003;11789;53.482;9.862;2023-10-31T00:17:18;16.75;16.75;11.50
23240;PMS7003;11789;53.482;9.862;2023-10-31T00:19:45;22.25;17.75;13.50
23240;PMS7003;11789;53.482;9.862;2023-10-31T00:22:10;18.00;15.75;11.50
23240;PMS7003;11789;53.482;9.862;2023-10-31T00:24:36;18.00;17.25;11.25
23240;PMS7003;11789;53.482;9.862;2023-10-31T00:27:01;20.50;17.50;11.25
23240;PMS7003;11789;53.482;9.862;2023-10-31T00:29:27;17.75;16.50;11.00
23240;PMS7003;11789;53.482;9.862;2023-10-31T00:31:52;18.25;16.00;11.50
23240;PMS7003;11789;53.482;9.862;2023-10-31T00:34:18;17.00;17.00;11.00
23240;PMS7003;11789;53.482;9.862;2023-10-31T00:36:45;14.50;14.50;10.50
23240;PMS7003;11789;53.482;9.862;2023-10-31T00:39:10;16.25;14.00;10.50
23240;PMS7003;11789;53.482;9.862;2023-10-31T00:41:37;17.75;13.00;10.00
23240;PMS7003;11789;53.482;9.862;2023-10-31T00:44:04;15.00;15.00;11.25
23240;PMS7003;11789;53.482;9.862;2023-10-31T00:46:29;15.50;13.75;10.75
23240;PMS7003;11789;53.482;9.862;2023-10-31T00:48:58;16.00;16.00;12.50
23240;PMS7003;11789;53.482;9.862;2023-10-31T00:51:23;14.00;14.00;10.00
23240;PMS7003;11789;53.482;9.862;2023-10-31T00:53:49;15.75;11.75;9.00
23240;PMS7003;11789;53.482;9.862;2023-10-31T00:56:14;15.25;12.25;10.00
23240;PMS7003;11789;53.482;9.862;2023-10-31T00:58:40;15.00;13.75;10.25
23240;PMS7003;11789;53.482;9.862;2023-10-31T01:01:05;15.25;14.00;11.00
23240;PMS7003;11789;53.482;9.862;2023-10-31T01:03:31;14.00;13.00;9.00
23240;PMS7003;11789;53.482;9.862;2023-10-31T01:05:56;12.50;12.50;10.00
23240;PMS7003;11789;53.482;9.862;2023-10-31T01:08:22;14.25;14.25;11.25
23240;PMS7003;11789;53.482;9.862;2023-10-31T01:10:51;11.00;11.00;9.25
23240;PMS7003;11789;53.482;9.862;2023-10-31T01:13:16;12.00;12.00;8.00
23240;PMS7003;11789;53.482;9.862;2023-10-31T01:15:42;11.50;11.25;7.75
23240;PMS7003;11789;53.482;9.862;2023-10-31T01:18:07;14.25;11.75;9.00
23240;PMS7003;11789;53.482;9.862;2023-10-31T01:20:33;10.50;10.50;9.00
23240;PMS7003;11789;53.482;9.862;2023-10-31T01:22:59;13.25;11.50;8.25
23240;PMS7003;11789;53.482;9.862;2023-10-31T01:25:24;12.50;12.50;9.25
23240;PMS7003;11789;53.482;9.862;2023-10-31T01:27:50;11.00;11.00;8.00
23240;PMS7003;11789;53.482;9.862;2023-10-31T01:30:15;10.00;10.00;7.25
23240;PMS7003;11789;53.482;9.862;2023-10-31T01:32:41;8.75;8.25;6.50
23240;PMS7003;11789;53.482;9.862;2023-10-31T01:35:06;10.25;9.75;7.00
23240;PMS7003;11789;53.482;9.862;2023-10-31T01:37:32;13.00;9.00;6.75
23240;PMS7003;11789;53.482;9.862;2023-10-31T01:40:01;12.50;11.50;8.00
23240;PMS7003;11789;53.482;9.862;2023-10-31T01:42:26;10.25;8.00;6.00
23240;PMS7003;11789;53.482;9.862;2023-10-31T01:44:52;9.75;9.75;7.50
23240;PMS7003;11789;53.482;9.862;2023-10-31T01:47:17;9.00;7.50;5.75
23240;PMS7003;11789;53.482;9.862;2023-10-31T01:49:43;9.75;8.00;6.00
23240;PMS7003;11789;53.482;9.862;2023-10-31T01:52:08;8.25;7.50;6.25
23240;PMS7003;11789;53.482;9.862;2023-10-31T01:54:34;6.75;6.75;5.50
23240;PMS7003;11789;53.482;9.862;2023-10-31T01:57:01;11.00;8.75;6.00
23240;PMS7003;11789;53.482;9.862;2023-10-31T01:59:29;6.50;6.50;6.00
23240;PMS7003;11789;53.482;9.862;2023-10-31T02:01:55;7.00;7.00;6.00
23240;PMS7003;11789;53.482;9.862;2023-10-31T02:04:23;6.00;6.00;5.00
23240;PMS7003;11789;53.482;9.862;2023-10-31T02:06:49;7.00;7.00;6.00
23240;PMS7003;11789;53.482;9.862;2023-10-31T02:09:14;8.50;8.50;6.50
23240;PMS7003;11789;53.482;9.862;2023-10-31T02:11:40;9.00;7.00;6.00
23240;PMS7003;11789;53.482;9.862;2023-10-31T02:14:06;6.25;6.25;5.00
23240;PMS7003;11789;53.482;9.862;2023-10-31T02:16:31;7.75;6.25;5.00
23240;PMS7003;11789;53.482;9.862;2023-10-31T02:18:57;3.00;3.00;1.00
23240;PMS7003;11789;53.482;9.862;2023-10-31T02:21:22;9.00;9.00;5.00
23240;PMS7003;11789;53.482;9.862;2023-10-31T02:24:00;8.25;8.25;6.00
23240;PMS7003;11789;53.482;9.862;2023-10-31T02:26:31;8.50;8.00;6.00
23240;PMS7003;11789;53.482;9.862;2023-10-31T02:28:58;8.75;7.50;5.50
23240;PMS7003;11789;53.482;9.862;2023-10-31T02:31:24;7.75;7.75;6.00
23240;PMS7003;11789;53.482;9.862;2023-10-31T02:33:50;6.75;6.75;6.00
23240;PMS7003;11789;53.482;9.862;2023-10-31T02:36:16;6.25;6.25;5.25
23240;PMS7003;11789;53.482;9.862;2023-10-31T02:38:42;7.75;7.75;6.75
23240;PMS7003;11789;53.482;9.862;2023-10-31T02:41:07;5.75;5.50;5.00
23240;PMS7003;11789;53.482;9.862;2023-10-31T02:43:33;7.25;7.25;6.00
23240;PMS7003;11789;53.482;9.862;2023-10-31T02:45:58;8.00;7.50;6.00
23240;PMS7003;11789;53.482;9.862;2023-10-31T02:48:24;8.25;8.25;6.00
23240;PMS7003;11789;53.482;9.862;2023-10-31T02:50:50;6.25;6.25;5.00
23240;PMS7003;11789;53.482;9.862;2023-10-31T02:53:17;7.00;7.00;6.00
23240;PMS7003;11789;53.482;9.862;2023-10-31T02:55:44;6.25;6.25;5.75
23240;PMS7003;11789;53.482;9.862;2023-10-31T02:58:09;8.25;6.50;5.75
23240;PMS7003;11789;53.482;9.862;2023-10-31T03:00:35;8.50;7.25;5.00
23240;PMS7003;11789;53.482;9.862;2023-10-31T03:03:01;5.75;5.75;5.50
23240;PMS7003;11789;53.482;9.862;2023-10-31T03:05:27;7.25;7.25;6.00
23240;PMS7003;11789;53.482;9.862;2023-10-31T03:07:52;8.00;8.00;7.00
23240;PMS7003;11789;53.482;9.862;2023-10-31T03:10:18;8.75;7.00;5.50
23240;PMS7003;11789;53.482;9.862;2023-10-31T03:12:45;11.50;9.75;6.75
23240;PMS7003;11789;53.482;9.862;2023-10-31T03:15:11;10.00;8.25;7.00
23240;PMS7003;11789;53.482;9.862;2023-10-31T03:17:37;12.25;11.00;8.00
23240;PMS7003;11789;53.482;9.862;2023-10-31T03:20:02;9.50;9.50;7.00
23240;PMS7003;11789;53.482;9.862;2023-10-31T03:22:28;11.00;11.00;8.75
23240;PMS7003;11789;53.482;9.862;2023-10-31T03:24:53;9.75;9.75;7.50
23240;PMS7003;11789;53.482;9.862;2023-10-31T03:27:19;10.50;9.00;7.00
23240;PMS7003;11789;53.482;9.862;2023-10-31T03:29:44;14.75;11.00;8.00
23240;PMS7003;11789;53.482;9.862;2023-10-31T03:32:25;11.00;11.00;8.25
23240;PMS7003;11789;53.482;9.862;2023-10-31T03:34:51;11.25;10.25;7.75
23240;PMS7003;11789;53.482;9.862;2023-10-31T03:37:17;9.50;8.00;6.00
23240;PMS7003;11789;53.482;9.862;2023-10-31T03:39:42;10.25;10.25;7.25
23240;PMS7003;11789;53.482;9.862;2023-10-31T03:42:07;11.25;11.25;8.25
23240;PMS7003;11789;53.482;9.862;2023-10-31T03:44:33;9.50;9.50;7.75
23240;PMS7003;11789;53.482;9.862;2023-10-31T03:46:58;14.25;12.75;8.75
23240;PMS7003;11789;53.482;9.862;2023-10-31T03:49:24;11.50;11.25;9.00
23240;PMS7003;11789;53.482;9.862;2023-10-31T03:51:49;14.75;13.75;10.00
23240;PMS7003;11789;53.482;9.862;2023-10-31T03:54:15;12.00;12.00;9.00
23240;PMS7003;11789;53.482;9.862;2023-10-31T03:56:41;11.50;11.25;8.25
23240;PMS7003;11789;53.482;9.862;2023-10-31T03:59:07;12.50;11.75;8.50
23240;PMS7003;11789;53.482;9.862;2023-10-31T04:01:33;11.25;11.25;8.00
23240;PMS7003;11789;53.482;9.862;2023-10-31T04:03:58;10.00;10.00;8.00
23240;PMS7003;11789;53.482;9.862;2023-10-31T04:06:24;12.50;12.50;10.00
23240;PMS7003;11789;53.482;9.862;2023-10-31T04:08:49;11.50;11.50;9.00
23240;PMS7003;11789;53.482;9.862;2023-10-31T04:11:15;10.50;9.00;6.00
23240;PMS7003;11789;53.482;9.862;2023-10-31T04:13:40;14.00;12.25;9.50
23240;PMS7003;11789;53.482;9.862;2023-10-31T04:18:53;13.25;12.00;10.00
23240;PMS7003;11789;53.482;9.862;2023-10-31T04:21:19;14.50;14.50;10.00
23240;PMS7003;11789;53.482;9.862;2023-10-31T04:23:44;14.00;14.00;10.00
23240;PMS7003;11789;53.482;9.862;2023-10-31T04:26:09;14.00;14.00;10.50
23240;PMS7003;11789;53.482;9.862;2023-10-31T04:28:35;13.75;13.50;10.50
23240;PMS7003;11789;53.482;9.862;2023-10-31T04:31:00;13.00;12.00;9.75
23240;PMS7003;11789;53.482;9.862;2023-10-31T04:33:26;13.25;13.25;10.25
23240;PMS7003;11789;53.482;9.862;2023-10-31T04:35:54;14.25;14.25;11.25
23240;PMS7003;11789;53.482;9.862;2023-10-31T04:38:20;16.50;15.00;11.00
23240;PMS7003;11789;53.482;9.862;2023-10-31T04:40:45;15.50;13.00;10.00
23240;PMS7003;11789;53.482;9.862;2023-10-31T04:43:11;11.00;11.00;9.00
23240;PMS7003;11789;53.482;9.862;2023-10-31T04:45:36;13.25;12.50;7.75
23240;PMS7003;11789;53.482;9.862;2023-10-31T04:48:02;11.00;11.00;9.00
23240;PMS7003;11789;53.482;9.862;2023-10-31T04:50:27;12.50;12.50;9.50
23240;PMS7003;11789;53.482;9.862;2023-10-31T04:52:53;11.00;11.00;9.00
23240;PMS7003;11789;53.482;9.862;2023-10-31T04:55:18;15.75;15.00;10.00
23240;PMS7003;11789;53.482;9.862;2023-10-31T04:57:44;15.00;13.00;9.50
23240;PMS7003;11789;53.482;9.862;2023-10-31T05:00:09;16.00;13.50;10.00
23240;PMS7003;11789;53.482;9.862;2023-10-31T05:02:35;15.75;14.25;10.25
23240;PMS7003;11789;53.482;9.862;2023-10-31T05:05:01;10.75;10.75;9.00
23240;PMS7003;11789;53.482;9.862;2023-10-31T05:07:26;13.25;13.25;10.50
23240;PMS7003;11789;53.482;9.862;2023-10-31T05:09:52;13.50;13.50;9.00
23240;PMS7003;11789;53.482;9.862;2023-10-31T05:12:17;12.25;12.25;9.75
23240;PMS7003;11789;53.482;9.862;2023-10-31T05:14:43;11.50;11.50;8.50
23240;PMS7003;11789;53.482;9.862;2023-10-31T05:17:08;12.00;12.00;9.00
23240;PMS7003;11789;53.482;9.862;2023-10-31T05:19:34;13.50;13.25;10.00
23240;PMS7003;11789;53.482;9.862;2023-10-31T05:21:59;12.75;12.75;9.00
23240;PMS7003;11789;53.482;9.862;2023-10-31T05:24:25;15.00;15.00;9.25
23240;PMS7003;11789;53.482;9.862;2023-10-31T05:26:51;11.50;11.50;8.50
23240;PMS7003;11789;53.482;9.862;2023-10-31T05:29:17;11.50;11.50;8.00
23240;PMS7003;11789;53.482;9.862;2023-10-31T05:31:42;12.25;12.25;8.00
23240;PMS7003;11789;53.482;9.862;2023-10-31T05:34:08;13.00;13.00;10.25
23240;PMS7003;11789;53.482;9.862;2023-10-31T05:36:34;13.00;13.00;10.25
23240;PMS7003;11789;53.482;9.862;2023-10-31T05:38:59;15.00;14.00;9.00
23240;PMS7003;11789;53.482;9.862;2023-10-31T05:41:25;12.50;12.50;8.50
23240;PMS7003;11789;53.482;9.862;2023-10-31T05:43:50;13.50;13.25;10.00
23240;PMS7003;11789;53.482;9.862;2023-10-31T05:46:16;13.25;13.25;9.00
23240;PMS7003;11789;53.482;9.862;2023-10-31T05:48:43;17.25;14.00;9.25
23240;PMS7003;11789;53.482;9.862;2023-10-31T05:51:11;17.25;17.25;10.75
23240;PMS7003;11789;53.482;9.862;2023-10-31T05:53:39;16.75;16.25;10.00
23240;PMS7003;11789;53.482;9.862;2023-10-31T05:56:06;14.25;14.25;8.75
23240;PMS7003;11789;53.482;9.862;2023-10-31T05:58:34;18.50;14.50;10.00
23240;PMS7003;11789;53.482;9.862;2023-10-31T06:01:00;15.75;15.50;9.25
23240;PMS7003;11789;53.482;9.862;2023-10-31T06:03:26;18.00;17.75;10.75
23240;PMS7003;11789;53.482;9.862;2023-10-31T06:05:51;18.75;17.75;11.25
23240;PMS7003;11789;53.482;9.862;2023-10-31T06:08:17;16.75;16.50;10.75
23240;PMS7003;11789;53.482;9.862;2023-10-31T06:10:46;15.00;15.00;10.25
23240;PMS7003;11789;53.482;9.862;2023-10-31T06:13:12;14.50;14.50;10.75
23240;PMS7003;11789;53.482;9.862;2023-10-31T06:15:37;16.25;15.75;11.00
23240;PMS7003;11789;53.482;9.862;2023-10-31T06:18:03;15.75;15.75;12.00
23240;PMS7003;11789;53.482;9.862;2023-10-31T06:20:28;14.25;14.25;10.00
23240;PMS7003;11789;53.482;9.862;2023-10-31T06:22:54;12.50;12.50;8.75
23240;PMS7003;11789;53.482;9.862;2023-10-31T06:25:19;14.75;14.00;9.50
23240;PMS7003;11789;53.482;9.862;2023-10-31T06:27:45;13.75;13.75;9.00
23240;PMS7003;11789;53.482;9.862;2023-10-31T06:30:10;12.50;12.50;8.25
23240;PMS7003;11789;53.482;9.862;2023-10-31T06:32:36;16.50;14.75;9.75
23240;PMS7003;11789;53.482;9.862;2023-10-31T06:35:02;14.75;12.00;9.00
23240;PMS7003;11789;53.482;9.862;2023-10-31T06:37:27;11.50;11.50;8.00
23240;PMS7003;11789;53.482;9.862;2023-10-31T06:39:53;7.00;7.00;5.75
23240;PMS7003;11789;53.482;9.862;2023-10-31T06:42:18;4.00;4.00;3.25
23240;PMS7003;11789;53.482;9.862;2023-10-31T06:44:44;3.50;3.50;3.00
23240;PMS7003;11789;53.482;9.862;2023-10-31T06:47:09;2.25;2.25;2.00
23240;PMS7003;11789;53.482;9.862;2023-10-31T06:49:34;2.00;2.00;1.25
23240;PMS7003;11789;53.482;9.862;2023-10-31T06:52:00;2.75;2.75;1.75
23240;PMS7003;11789;53.482;9.862;2023-10-31T06:54:25;3.00;3.00;2.25
23240;PMS7003;11789;53.482;9.862;2023-10-31T06:56:51;1.00;1.00;1.00
23240;PMS7003;11789;53.482;9.862;2023-10-31T06:59:16;1.00;1.00;1.00
23240;PMS7003;11789;53.482;9.862;2023-10-31T07:01:42;2.00;2.00;1.00
23240;PMS7003;11789;53.482;9.862;2023-10-31T07:04:10;3.75;3.75;2.50
23240;PMS7003;11789;53.482;9.862;2023-10-31T07:06:35;7.00;7.00;5.00
23240;PMS7003;11789;53.482;9.862;2023-10-31T07:09:01;10.75;8.25;6.00
23240;PMS7003;11789;53.482;9.862;2023-10-31T07:11:30;14.25;14.00;9.00
23240;PMS7003;11789;53.482;9.862;2023-10-31T07:13:59;23.25;20.00;13.75
23240;PMS7003;11789;53.482;9.862;2023-10-31T07:16:31;21.50;19.75;14.00
23240;PMS7003;11789;53.482;9.862;2023-10-31T07:18:57;22.50;22.50;14.25
23240;PMS7003;11789;53.482;9.862;2023-10-31T07:21:23;25.75;23.25;15.50
23240;PMS7003;11789;53.482;9.862;2023-10-31T07:23:48;23.75;20.50;13.75
23240;PMS7003;11789;53.482;9.862;2023-10-31T07:26:14;22.50;21.00;13.25
23240;PMS7003;11789;53.482;9.862;2023-10-31T07:28:39;23.00;22.00;15.50
23240;PMS7003;11789;53.482;9.862;2023-10-31T07:31:05;22.25;19.75;12.00
23240;PMS7003;11789;53.482;9.862;2023-10-31T07:33:30;19.25;17.75;12.25
23240;PMS7003;11789;53.482;9.862;2023-10-31T07:35:56;15.00;13.00;10.50
23240;PMS7003;11789;53.482;9.862;2023-10-31T07:38:21;11.75;11.75;8.00
23240;PMS7003;11789;53.482;9.862;2023-10-31T07:40:46;10.50;10.50;7.00
23240;PMS7003;11789;53.482;9.862;2023-10-31T07:43:13;8.50;7.50;5.50
23240;PMS7003;11789;53.482;9.862;2023-10-31T07:45:39;5.50;5.50;4.00
23240;PMS7003;11789;53.482;9.862;2023-10-31T07:48:05;4.00;4.00;3.50
23240;PMS7003;11789;53.482;9.862;2023-10-31T07:50:30;2.75;2.75;2.00
23240;PMS7003;11789;53.482;9.862;2023-10-31T07:52:56;1.25;1.25;1.00
23240;PMS7003;11789;53.482;9.862;2023-10-31T07:55:21;3.75;2.25;2.00
23240;PMS7003;11789;53.482;9.862;2023-10-31T07:57:47;9.25;8.00;6.00
23240;PMS7003;11789;53.482;9.862;2023-10-31T08:00:13;1.00;1.00;1.00
23240;PMS7003;11789;53.482;9.862;2023-10-31T08:02:39;2.25;2.25;2.00
23240;PMS7003;11789;53.482;9.862;2023-10-31T08:05:06;2.00;1.00;1.00
23240;PMS7003;11789;53.482;9.862;2023-10-31T08:07:38;0.50;0.00;0.00
23240;PMS7003;11789;53.482;9.862;2023-10-31T08:10:04;3.00;1.50;1.00
23240;PMS7003;11789;53.482;9.862;2023-10-31T08:12:30;0.00;0.00;0.00
23240;PMS7003;11789;53.482;9.862;2023-10-31T08:14:58;0.00;0.00;0.00
23240;PMS7003;11789;53.482;9.862;2023-10-31T08:17:24;2.00;2.00;1.00
23240;PMS7003;11789;53.482;9.862;2023-10-31T08:19:51;2.00;2.00;1.50
23240;PMS7003;11789;53.482;9.862;2023-10-31T08:22:17;1.00;1.00;0.75
23240;PMS7003;11789;53.482;9.862;2023-10-31T08:24:42;0.00;0.00;0.00
23240;PMS7003;11789;53.482;9.862;2023-10-31T08:27:08;0.75;0.00;0.00
23240;PMS7003;11789;53.482;9.862;2023-10-31T08:29:33;0.00;0.00;0.00
23240;PMS7003;11789;53.482;9.862;2023-10-31T08:31:59;0.00;0.00;0.00
23240;PMS7003;11789;53.482;9.862;2023-10-31T08:34:24;0.75;0.00;0.00
23240;PMS7003;11789;53.482;9.862;2023-10-31T08:36:50;0.00;0.00;0.00
23240;PMS7003;11789;53.482;9.862;2023-10-31T08:39:17;0.00;0.00;0.00
23240;PMS7003;11789;53.482;9.862;2023-10-31T08:41:53;0.00;0.00;0.00
23240;PMS7003;11789;53.482;9.862;2023-10-31T08:44:20;0.00;0.00;0.00
23240;PMS7003;11789;53.482;9.862;2023-10-31T08:46:46;0.00;0.00;0.00
23240;PMS7003;11789;53.482;9.862;2023-10-31T08:49:12;0.00;0.00;0.00
23240;PMS7003;11789;53.482;9.862;2023-10-31T08:51:38;0.00;0.00;0.00
23240;PMS7003;11789;53.482;9.862;2023-10-31T08:54:03;0.00;0.00;0.00
23240;PMS7003;11789;53.482;9.862;2023-10-31T08:56:29;0.00;0.00;0.00
23240;PMS7003;11789;53.482;9.862;2023-10-31T08:58:54;0.00;0.00;0.00
23240;PMS7003;11789;53.482;9.862;2023-10-31T09:01:20;0.00;0.00;0.00
23240;PMS7003;11789;53.482;9.862;2023-10-31T09:03:46;0.00;0.00;0.00
23240;PMS7003;11789;53.482;9.862;2023-10-31T09:06:11;0.00;0.00;0.00
23240;PMS7003;11789;53.482;9.862;2023-10-31T09:08:37;0.00;0.00;0.00
23240;PMS7003;11789;53.482;9.862;2023-10-31T09:11:04;0.00;0.00;0.00
23240;PMS7003;11789;53.482;9.862;2023-10-31T09:13:30;0.00;0.00;0.00
23240;PMS7003;11789;53.482;9.862;2023-10-31T09:15:57;1.00;0.00;0.00
23240;PMS7003;11789;53.482;9.862;2023-10-31T09:18:23;0.00;0.00;0.00
23240;PMS7003;11789;53.482;9.862;2023-10-31T09:20:49;0.00;0.00;0.00
23240;PMS7003;11789;53.482;9.862;2023-10-31T09:23:15;1.00;0.00;0.00
23240;PMS7003;11789;53.482;9.862;2023-10-31T09:25:42;0.00;0.00;0.00
23240;PMS7003;11789;53.482;9.862;2023-10-31T09:28:08;0.00;0.00;0.00
23240;PMS7003;11789;53.482;9.862;2023-10-31T09:30:33;0.50;0.50;0.50
23240;PMS7003;11789;53.482;9.862;2023-10-31T09:32:59;0.00;0.00;0.00
23240;PMS7003;11789;53.482;9.862;2023-10-31T09:35:24;0.50;0.00;0.00
23240;PMS7003;11789;53.482;9.862;2023-10-31T09:37:51;0.00;0.00;0.00
23240;PMS7003;11789;53.482;9.862;2023-10-31T09:40:17;0.00;0.00;0.00
23240;PMS7003;11789;53.482;9.862;2023-10-31T09:42:43;0.00;0.00;0.00
23240;PMS7003;11789;53.482;9.862;2023-10-31T09:45:10;0.00;0.00;0.00
23240;PMS7003;11789;53.482;9.862;2023-10-31T09:47:35;1.00;0.00;0.00
23240;PMS7003;11789;53.482;9.862;2023-10-31T09:50:02;0.00;0.00;0.00
23240;PMS7003;11789;53.482;9.862;2023-10-31T09:52:28;0.00;0.00;0.00
23240;PMS7003;11789;53.482;9.862;2023-10-31T09:54:54;0.00;0.00;0.00
23240;PMS7003;11789;53.482;9.862;2023-10-31T09:57:21;0.00;0.00;0.00
23240;PMS7003;11789;53.482;9.862;2023-10-31T09:59:46;0.00;0.00;0.00
23240;PMS7003;11789;53.482;9.862;2023-10-31T10:02:12;0.00;0.00;0.00
23240;PMS7003;11789;53.482;9.862;2023-10-31T10:04:37;1.00;0.00;0.00
23240;PMS7003;11789;53.482;9.862;2023-10-31T10:07:03;0.00;0.00;0.00
23240;PMS7003;11789;53.482;9.862;2023-10-31T10:09:30;0.00;0.00;0.00
23240;PMS7003;11789;53.482;9.862;2023-10-31T10:12:00;0.00;0.00;0.00
23240;PMS7003;11789;53.482;9.862;2023-10-31T10:14:26;0.00;0.00;0.00
23240;PMS7003;11789;53.482;9.862;2023-10-31T10:16:54;0.00;0.00;0.00
23240;PMS7003;11789;53.482;9.862;2023-10-31T10:19:20;0.00;0.00;0.00
23240;PMS7003;11789;53.482;9.862;2023-10-31T10:21:48;0.00;0.00;0.00
23240;PMS7003;11789;53.482;9.862;2023-10-31T10:24:17;0.25;0.25;0.00
23240;PMS7003;11789;53.482;9.862;2023-10-31T10:26:44;0.50;0.50;0.00
23240;PMS7003;11789;53.482;9.862;2023-10-31T10:29:10;0.00;0.00;0.00
23240;PMS7003;11789;53.482;9.862;2023-10-31T10:31:35;2.00;0.00;0.00
23240;PMS7003;11789;53.482;9.862;2023-10-31T10:34:01;0.00;0.00;0.00
23240;PMS7003;11789;53.482;9.862;2023-10-31T10:36:26;0.50;0.50;0.00
23240;PMS7003;11789;53.482;9.862;2023-10-31T10:38:54;2.00;0.00;0.00
23240;PMS7003;11789;53.482;9.862;2023-10-31T10:41:23;0.25;0.00;0.00
23240;PMS7003;11789;53.482;9.862;2023-10-31T10:43:54;0.00;0.00;0.00
23240;PMS7003;11789;53.482;9.862;2023-10-31T10:46:22;0.00;0.00;0.00
23240;PMS7003;11789;53.482;9.862;2023-10-31T10:48:50;0.00;0.00;0.00
23240;PMS7003;11789;53.482;9.862;2023-10-31T10:51:46;1.75;0.25;0.00
23240;PMS7003;11789;53.482;9.862;2023-10-31T10:54:26;1.00;1.00;0.50
23240;PMS7003;11789;53.482;9.862;2023-10-31T10:56:53;0.25;0.25;0.00
23240;PMS7003;11789;53.482;9.862;2023-10-31T10:59:45;0.00;0.00;0.00
23240;PMS7003;11789;53.482;9.862;2023-10-31T11:02:15;1.00;1.00;0.50
23240;PMS7003;11789;53.482;9.862;2023-10-31T11:04:43;1.00;1.00;1.00
23240;PMS7003;11789;53.482;9.862;2023-10-31T11:07:09;1.00;1.00;1.00
23240;PMS7003;11789;53.482;9.862;2023-10-31T11:09:34;1.00;1.00;0.50
23240;PMS7003;11789;53.482;9.862;2023-10-31T11:12:01;0.00;0.00;0.00
23240;PMS7003;11789;53.482;9.862;2023-10-31T11:14:27;1.00;1.00;1.00
23240;PMS7003;11789;53.482;9.862;2023-10-31T11:16:55;0.00;0.00;0.00
23240;PMS7003;11789;53.482;9.862;2023-10-31T11:19:27;1.00;1.00;1.00
23240;PMS7003;11789;53.482;9.862;2023-10-31T11:21:54;0.00;0.00;0.00
23240;PMS7003;11789;53.482;9.862;2023-10-31T11:24:26;0.00;0.00;0.00
23240;PMS7003;11789;53.482;9.862;2023-10-31T11:27:11;0.50;0.50;0.50
23240;PMS7003;11789;53.482;9.862;2023-10-31T11:29:37;0.00;0.00;0.00
23240;PMS7003;11789;53.482;9.862;2023-10-31T11:32:03;0.00;0.00;0.00
23240;PMS7003;11789;53.482;9.862;2023-10-31T11:34:32;0.00;0.00;0.00
23240;PMS7003;11789;53.482;9.862;2023-10-31T11:42:43;0.00;0.00;0.00
23240;PMS7003;11789;53.482;9.862;2023-10-31T11:45:12;0.00;0.00;0.00
23240;PMS7003;11789;53.482;9.862;2023-10-31T11:47:48;0.00;0.00;0.00
23240;PMS7003;11789;53.482;9.862;2023-10-31T11:50:15;0.00;0.00;0.00
23240;PMS7003;11789;53.482;9.862;2023-10-31T11:52:40;1.00;0.00;0.00
23240;PMS7003;11789;53.482;9.862;2023-10-31T11:55:09;0.25;0.25;0.00
23240;PMS7003;11789;53.482;9.862;2023-10-31T11:57:37;0.00;0.00;0.00
23240;PMS7003;11789;53.482;9.862;2023-10-31T12:00:03;0.00;0.00;0.00
23240;PMS7003;11789;53.482;9.862;2023-10-31T12:02:30;0.00;0.00;0.00
23240;PMS7003;11789;53.482;9.862;2023-10-31T12:05:08;0.00;0.00;0.00
23240;PMS7003;11789;53.482;9.862;2023-10-31T12:07:45;0.00;0.00;0.00
23240;PMS7003;11789;53.482;9.862;2023-10-31T12:10:11;0.00;0.00;0.00
23240;PMS7003;11789;53.482;9.862;2023-10-31T12:12:37;0.00;0.00;0.00
23240;PMS7003;11789;53.482;9.862;2023-10-31T12:15:04;0.00;0.00;0.00
23240;PMS7003;11789;53.482;9.862;2023-10-31T12:17:32;0.50;0.50;0.00
23240;PMS7003;11789;53.482;9.862;2023-10-31T12:19:58;0.75;0.75;0.00
23240;PMS7003;11789;53.482;9.862;2023-10-31T12:22:28;2.00;1.00;1.00
23240;PMS7003;11789;53.482;9.862;2023-10-31T12:24:59;0.75;0.00;0.00
23240;PMS7003;11789;53.482;9.862;2023-10-31T12:27:25;0.00;0.00;0.00
23240;PMS7003;11789;53.482;9.862;2023-10-31T12:30:06;0.00;0.00;0.00
23240;PMS7003;11789;53.482;9.862;2023-10-31T12:32:32;0.00;0.00;0.00
23240;PMS7003;11789;53.482;9.862;2023-10-31T12:34:58;0.00;0.00;0.00
23240;PMS7003;11789;53.482;9.862;2023-10-31T12:37:24;0.50;0.00;0.00
23240;PMS7003;11789;53.482;9.862;2023-10-31T12:39:49;0.00;0.00;0.00
23240;PMS7003;11789;53.482;9.862;2023-10-31T12:42:16;0.00;0.00;0.00
23240;PMS7003;11789;53.482;9.862;2023-10-31T12:44:42;0.00;0.00;0.00
23240;PMS7003;11789;53.482;9.862;2023-10-31T12:47:08;0.00;0.00;0.00
23240;PMS7003;11789;53.482;9.862;2023-10-31T12:49:34;0.75;0.75;0.25
23240;PMS7003;11789;53.482;9.862;2023-10-31T12:52:03;0.25;0.25;0.25
23240;PMS7003;11789;53.482;9.862;2023-10-31T12:54:30;1.00;1.00;0.00
23240;PMS7003;11789;53.482;9.862;2023-10-31T12:57:02;1.00;1.00;1.00
23240;PMS7003;11789;53.482;9.862;2023-10-31T12:59:33;1.00;1.00;1.00
23240;PMS7003;11789;53.482;9.862;2023-10-31T13:01:59;0.00;0.00;0.00
23240;PMS7003;11789;53.482;9.862;2023-10-31T13:04:26;0.00;0.00;0.00
23240;PMS7003;11789;53.482;9.862;2023-10-31T13:06:59;1.00;1.00;1.00
23240;PMS7003;11789;53.482;9.862;2023-10-31T13:09:31;2.00;2.00;1.00
23240;PMS7003;11789;53.482;9.862;2023-10-31T13:12:01;1.00;1.00;0.50
23240;PMS7003;11789;53.482;9.862;2023-10-31T13:14:28;0.50;0.50;0.50
23240;PMS7003;11789;53.482;9.862;2023-10-31T13:16:54;0.50;0.00;0.00
23240;PMS7003;11789;53.482;9.862;2023-10-31T13:19:19;1.00;1.00;0.00
23240;PMS7003;11789;53.482;9.862;2023-10-31T13:21:55;1.00;1.00;0.75
23240;PMS7003;11789;53.482;9.862;2023-10-31T13:24:21;1.00;1.00;1.00
23240;PMS7003;11789;53.482;9.862;2023-10-31T13:26:46;0.50;0.00;0.00
23240;PMS7003;11789;53.482;9.862;2023-10-31T13:29:16;0.00;0.00;0.00
23240;PMS7003;11789;53.482;9.862;2023-10-31T13:32:05;0.00;0.00;0.00
23240;PMS7003;11789;53.482;9.862;2023-10-31T13:34:30;0.00;0.00;0.00
23240;PMS7003;11789;53.482;9.862;2023-10-31T13:36:57;0.00;0.00;0.00
23240;PMS7003;11789;53.482;9.862;2023-10-31T13:39:23;1.00;1.00;0.75
23240;PMS7003;11789;53.482;9.862;2023-10-31T13:41:48;2.50;1.25;1.00
23240;PMS7003;11789;53.482;9.862;2023-10-31T13:44:14;3.00;3.00;2.00
23240;PMS7003;11789;53.482;9.862;2023-10-31T13:46:39;2.00;2.00;2.00
23240;PMS7003;11789;53.482;9.862;2023-10-31T13:49:05;2.00;2.00;1.50
23240;PMS7003;11789;53.482;9.862;2023-10-31T13:51:32;2.00;2.00;2.00
23240;PMS7003;11789;53.482;9.862;2023-10-31T13:53:57;6.00;5.00;3.75
23240;PMS7003;11789;53.482;9.862;2023-10-31T13:56:23;32.25;31.50;21.00
23240;PMS7003;11789;53.482;9.862;2023-10-31T13:58:48;5.50;3.50;3.50
23240;PMS7003;11789;53.482;9.862;2023-10-31T14:01:14;4.25;3.00;2.25
23240;PMS7003;11789;53.482;9.862;2023-10-31T14:03:39;1.75;1.00;0.25
23240;PMS7003;11789;53.482;9.862;2023-10-31T14:06:05;9.50;9.50;7.00
23240;PMS7003;11789;53.482;9.862;2023-10-31T14:08:30;1.00;1.00;0.75
23240;PMS7003;11789;53.482;9.862;2023-10-31T14:10:56;1.00;1.00;1.00
23240;PMS7003;11789;53.482;9.862;2023-10-31T14:13:22;3.00;1.00;1.00
23240;PMS7003;11789;53.482;9.862;2023-10-31T14:15:47;1.75;1.75;1.25